createdAt,value
2018-09-18T00:00:58.456Z,99.90
2018-09-18T00:03:26.566Z,99.90
2018-09-18T00:05:54.843Z,99.90
2018-09-18T00:08:22.936Z,99.90
2018-09-18T00:10:51.103Z,99.90
2018-09-18T00:13:19.171Z,99.90
2018-09-18T00:15:47.440Z,99.90
2018-09-18T00:18:15.559Z,99.90
2018-09-18T00:20:43.683Z,99.90
2018-09-18T00:23:11.791Z,99.90
2018-09-18T00:25:39.910Z,99.90
2018-09-18T00:28:08.029Z,99.90
2018-09-18T00:30:36.159Z,99.90
2018-09-18T00:33:04.257Z,99.90
2018-09-18T00:35:32.378Z,99.90
2018-09-18T00:38:00.492Z,99.90
2018-09-18T00:40:28.660Z,99.90
2018-09-18T00:42:56.770Z,99.90
2018-09-18T00:45:24.931Z,99.90
2018-09-18T00:47:53.288Z,99.90
2018-09-18T00:50:21.422Z,99.90
2018-09-18T00:52:49.608Z,99.90
2018-09-18T00:55:17.730Z,99.90
2018-09-18T00:57:45.839Z,99.90
2018-09-18T01:00:13.972Z,99.90
2018-09-18T01:02:42.085Z,99.90
2018-09-18T01:05:10.227Z,99.90
2018-09-18T01:07:38.335Z,99.90
2018-09-18T01:10:06.580Z,99.90
2018-09-18T01:12:34.691Z,99.90
2018-09-18T01:15:02.821Z,99.90
2018-09-18T01:17:30.932Z,99.90
2018-09-18T01:19:59.051Z,99.90
2018-09-18T01:22:27.380Z,99.90
2018-09-18T01:24:55.629Z,99.90
2018-09-18T01:27:23.739Z,99.90
2018-09-18T01:29:51.940Z,99.90
2018-09-18T01:32:20.055Z,99.90
2018-09-18T01:34:48.204Z,99.90
2018-09-18T01:37:16.315Z,99.90
2018-09-18T01:39:44.435Z,99.90
2018-09-18T01:42:12.576Z,99.90
2018-09-18T01:44:40.681Z,99.90
2018-09-18T01:47:08.795Z,99.90
2018-09-18T01:49:36.893Z,99.90
2018-09-18T01:52:05.020Z,99.90
2018-09-18T01:54:33.124Z,99.90
2018-09-18T01:57:01.267Z,99.90
2018-09-18T01:59:29.396Z,99.90
2018-09-18T02:01:57.618Z,99.90
2018-09-18T02:04:25.730Z,99.90
2018-09-18T02:06:53.852Z,99.90
2018-09-18T02:09:21.963Z,99.90
2018-09-18T02:11:50.102Z,99.90
2018-09-18T02:14:18.223Z,99.90
2018-09-18T02:16:46.348Z,99.90
2018-09-18T02:19:14.988Z,99.90
2018-09-18T02:21:43.124Z,99.90
2018-09-18T02:24:11.333Z,99.90
2018-09-18T02:26:39.476Z,99.90
2018-09-18T02:29:07.584Z,99.90
2018-09-18T02:31:35.718Z,99.90
2018-09-18T02:34:03.826Z,99.90
2018-09-18T02:36:31.952Z,99.90
2018-09-18T02:39:00.114Z,99.90
2018-09-18T02:41:28.239Z,99.90
2018-09-18T02:43:56.350Z,99.90
2018-09-18T02:46:24.465Z,99.90
2018-09-18T02:48:52.600Z,99.90
2018-09-18T02:51:20.724Z,99.90
2018-09-18T02:53:48.819Z,99.90
2018-09-18T02:56:16.940Z,99.90
2018-09-18T02:58:45.072Z,99.90
2018-09-18T03:01:13.188Z,99.90
2018-09-18T03:03:41.299Z,99.90
2018-09-18T03:06:09.427Z,99.90
2018-09-18T03:08:37.647Z,99.90
2018-09-18T03:11:05.796Z,99.90
2018-09-18T03:13:33.916Z,99.90
2018-09-18T03:16:02.028Z,99.90
2018-09-18T03:18:30.163Z,99.90
2018-09-18T03:20:58.328Z,99.90
2018-09-18T03:23:26.408Z,99.90
2018-09-18T03:25:54.542Z,99.90
2018-09-18T03:28:22.669Z,99.90
2018-09-18T03:30:50.859Z,99.90
2018-09-18T03:33:18.972Z,99.90
2018-09-18T03:35:47.234Z,99.90
2018-09-18T03:38:15.220Z,99.90
2018-09-18T03:40:43.333Z,99.90
2018-09-18T03:43:11.454Z,99.90
2018-09-18T03:45:39.576Z,99.90
2018-09-18T03:48:07.727Z,99.90
2018-09-18T03:50:35.835Z,99.90
2018-09-18T03:53:03.957Z,99.90
2018-09-18T03:55:32.080Z,99.90
2018-09-18T03:58:00.208Z,99.90
2018-09-18T04:00:28.396Z,99.90
2018-09-18T04:02:56.598Z,99.90
2018-09-18T04:05:24.646Z,99.90
2018-09-18T04:07:52.823Z,99.90
2018-09-18T04:10:20.943Z,99.90
2018-09-18T04:12:49.088Z,99.90
2018-09-18T04:15:17.231Z,99.90
2018-09-18T04:17:45.419Z,99.90
2018-09-18T04:20:13.526Z,99.90
2018-09-18T04:22:41.651Z,99.90
2018-09-18T04:25:09.758Z,99.90
2018-09-18T04:27:38.123Z,99.90
2018-09-18T04:30:06.322Z,99.90
2018-09-18T04:32:34.397Z,99.90
2018-09-18T04:35:02.509Z,99.90
2018-09-18T04:37:30.638Z,99.90
2018-09-18T04:39:58.747Z,99.90
2018-09-18T04:42:27.254Z,99.90
2018-09-18T04:44:55.368Z,99.90
2018-09-18T04:47:23.496Z,99.90
2018-09-18T04:49:51.617Z,99.90
2018-09-18T04:52:19.731Z,99.90
2018-09-18T04:54:47.922Z,99.90
2018-09-18T04:57:16.012Z,99.90
2018-09-18T04:59:44.118Z,99.90
2018-09-18T05:02:12.393Z,99.90
2018-09-18T05:04:40.385Z,99.90
2018-09-18T05:07:08.511Z,99.90
2018-09-18T05:09:36.634Z,99.90
2018-09-18T05:12:04.802Z,99.90
2018-09-18T05:14:32.923Z,99.90
2018-09-18T05:17:01.065Z,99.90
2018-09-18T05:19:29.179Z,99.90
2018-09-18T05:21:57.275Z,99.90
2018-09-18T05:24:25.433Z,99.90
2018-09-18T05:26:53.534Z,99.90
2018-09-18T05:29:21.664Z,99.90
2018-09-18T05:31:49.785Z,99.90
2018-09-18T05:34:17.907Z,99.90
2018-09-18T05:36:46.043Z,99.90
2018-09-18T05:39:14.184Z,99.90
2018-09-18T05:41:42.296Z,99.90
2018-09-18T05:44:10.423Z,99.90
2018-09-18T05:46:38.569Z,99.90
2018-09-18T05:49:06.774Z,99.90
2018-09-18T05:51:35.147Z,99.90
2018-09-18T05:54:03.257Z,99.90
2018-09-18T05:56:31.373Z,99.90
2018-09-18T05:58:59.505Z,99.90
2018-09-18T06:01:27.639Z,99.90
2018-09-18T06:03:55.772Z,99.90
2018-09-18T06:06:23.886Z,99.90
2018-09-18T06:08:52.033Z,99.90
2018-09-18T06:11:20.160Z,99.90
2018-09-18T06:13:48.304Z,99.90
2018-09-18T06:16:16.430Z,99.90
2018-09-18T06:18:44.673Z,99.90
2018-09-18T06:21:12.775Z,99.90
2018-09-18T06:23:40.901Z,99.90
2018-09-18T06:26:09.012Z,99.90
2018-09-18T06:28:37.135Z,99.90
2018-09-18T06:31:05.258Z,99.90
2018-09-18T06:33:33.375Z,99.90
2018-09-18T06:36:01.499Z,99.90
2018-09-18T06:38:29.612Z,99.90
2018-09-18T06:40:57.751Z,99.90
2018-09-18T06:43:25.870Z,99.90
2018-09-18T06:45:54.015Z,99.90
2018-09-18T06:48:22.164Z,99.90
2018-09-18T06:50:50.285Z,99.90
2018-09-18T06:53:18.409Z,99.90
2018-09-18T06:55:46.694Z,99.90
2018-09-18T06:58:14.805Z,99.90
2018-09-18T07:00:42.919Z,99.90
2018-09-18T07:03:11.050Z,99.90
2018-09-18T07:05:39.245Z,99.90
2018-09-18T07:08:07.295Z,99.90
2018-09-18T07:10:35.467Z,99.90
2018-09-18T07:13:04.525Z,99.90
2018-09-18T07:15:32.632Z,99.90
2018-09-18T07:18:00.770Z,99.90
2018-09-18T07:20:28.854Z,99.90
2018-09-18T07:22:56.958Z,99.90
2018-09-18T07:25:25.183Z,99.90
2018-09-18T07:27:53.320Z,99.90
2018-09-18T07:30:21.471Z,99.90
2018-09-18T07:32:49.604Z,99.90
2018-09-18T07:35:17.712Z,99.90
2018-09-18T07:37:45.946Z,99.90
2018-09-18T07:40:14.067Z,99.90
2018-09-18T07:42:42.197Z,99.90
2018-09-18T07:45:10.315Z,99.90
2018-09-18T07:47:38.435Z,99.90
2018-09-18T07:50:06.559Z,99.90
2018-09-18T07:52:34.666Z,99.90
2018-09-18T07:55:02.782Z,99.90
2018-09-18T07:57:30.888Z,99.90
2018-09-18T07:59:59.006Z,99.90
2018-09-18T08:02:27.131Z,99.70
2018-09-18T08:04:55.283Z,99.90
2018-09-18T08:07:23.389Z,98.60
2018-09-18T08:09:51.543Z,98.60
2018-09-18T08:12:19.672Z,98.50
2018-09-18T08:14:47.800Z,97.90
2018-09-18T08:17:15.926Z,95.70
2018-09-18T08:19:44.190Z,96.20
2018-09-18T08:22:12.172Z,92.00
2018-09-18T08:24:40.285Z,93.40
2018-09-18T08:27:08.420Z,92.10
2018-09-18T08:29:36.828Z,91.10
2018-09-18T08:32:04.963Z,89.70
2018-09-18T08:34:33.295Z,85.20
2018-09-18T08:37:01.429Z,83.70
2018-09-18T08:39:29.551Z,84.10
2018-09-18T08:41:57.691Z,83.60
2018-09-18T08:44:25.801Z,82.20
2018-09-18T08:46:53.952Z,81.80
2018-09-18T08:49:22.060Z,80.60
2018-09-18T08:51:50.240Z,79.30
2018-09-18T08:54:18.331Z,79.50
2018-09-18T08:56:46.451Z,79.40
2018-09-18T08:59:14.562Z,79.90
2018-09-18T09:01:42.707Z,80.20
2018-09-18T09:04:10.867Z,79.30
2018-09-18T09:06:39.007Z,79.00
2018-09-18T09:09:11.088Z,77.80
2018-09-18T09:11:39.192Z,78.00
2018-09-18T09:14:07.316Z,77.60
2018-09-18T09:16:35.425Z,79.00
2018-09-18T09:19:03.586Z,77.50
2018-09-18T09:21:31.770Z,76.70
2018-09-18T09:23:59.902Z,76.80
2018-09-18T09:26:28.038Z,76.10
2018-09-18T09:28:56.193Z,75.80
2018-09-18T09:31:24.325Z,75.40
2018-09-18T09:33:52.473Z,74.80
2018-09-18T09:36:20.596Z,74.90
2018-09-18T09:38:48.716Z,74.90
2018-09-18T09:41:16.847Z,73.80
2018-09-18T09:43:44.991Z,74.10
2018-09-18T09:46:13.115Z,74.10
2018-09-18T09:48:41.225Z,74.00
2018-09-18T09:51:09.358Z,74.60
2018-09-18T09:53:37.459Z,74.50
2018-09-18T09:56:05.603Z,74.60
2018-09-18T09:58:33.724Z,73.20
2018-09-18T10:01:07.596Z,73.70
2018-09-18T10:03:35.721Z,74.00
2018-09-18T10:06:03.831Z,73.40
2018-09-18T10:08:31.992Z,73.00
2018-09-18T10:11:00.187Z,73.10
2018-09-18T10:13:28.214Z,72.80
2018-09-18T10:15:56.336Z,72.40
2018-09-18T10:18:24.451Z,72.10
2018-09-18T10:20:52.640Z,71.70
2018-09-18T10:23:20.775Z,70.80
2018-09-18T10:25:48.919Z,69.60
2018-09-18T10:28:17.033Z,69.80
2018-09-18T10:30:45.127Z,69.30
2018-09-18T10:33:13.277Z,70.10
2018-09-18T10:35:41.378Z,69.30
2018-09-18T10:38:09.491Z,68.90
2018-09-18T10:40:37.635Z,68.30
2018-09-18T10:43:05.768Z,68.80
2018-09-18T10:45:33.855Z,68.70
2018-09-18T10:48:01.988Z,68.90
2018-09-18T10:50:30.083Z,69.20
2018-09-18T10:52:58.219Z,68.60
2018-09-18T10:55:26.357Z,68.30
2018-09-18T10:57:54.474Z,66.90
2018-09-18T11:00:22.615Z,67.60
2018-09-18T11:02:50.765Z,67.30
2018-09-18T11:05:18.876Z,66.80
2018-09-18T11:07:47.051Z,66.80
2018-09-18T11:10:15.115Z,66.00
2018-09-18T11:12:43.360Z,65.30
2018-09-18T11:15:11.371Z,65.40
2018-09-18T11:17:39.463Z,65.70
2018-09-18T11:20:07.598Z,65.30
2018-09-18T11:22:35.717Z,66.70
2018-09-18T11:25:03.854Z,65.90
2018-09-18T11:27:31.999Z,65.50
2018-09-18T11:30:00.124Z,64.70
2018-09-18T11:32:28.248Z,62.90
2018-09-18T11:34:56.416Z,62.70
2018-09-18T11:37:24.526Z,63.10
2018-09-18T11:39:52.638Z,63.30
2018-09-18T11:42:20.771Z,63.40
2018-09-18T11:44:48.904Z,63.70
2018-09-18T11:47:17.010Z,63.30
2018-09-18T11:49:45.124Z,62.90
2018-09-18T11:52:13.240Z,63.00
2018-09-18T11:54:41.355Z,60.60
2018-09-18T11:57:09.536Z,59.80
2018-09-18T11:59:37.608Z,62.00
2018-09-18T12:02:05.702Z,62.30
2018-09-18T12:04:33.845Z,62.00
2018-09-18T12:07:01.924Z,60.80
2018-09-18T12:09:30.130Z,61.40
2018-09-18T12:11:58.247Z,61.80
2018-09-18T12:14:26.570Z,61.80
2018-09-18T12:16:54.708Z,62.20
2018-09-18T12:19:22.874Z,61.50
2018-09-18T12:21:51.117Z,60.20
2018-09-18T12:24:19.286Z,60.50
2018-09-18T12:26:47.419Z,59.50
2018-09-18T12:29:15.527Z,59.40
2018-09-18T12:31:43.650Z,59.80
2018-09-18T12:34:11.764Z,59.50
2018-09-18T12:36:39.867Z,59.60
2018-09-18T12:39:09.157Z,59.20
2018-09-18T12:41:37.982Z,59.10
2018-09-18T12:44:06.098Z,58.80
2018-09-18T12:46:34.212Z,59.50
2018-09-18T12:49:02.373Z,59.30
2018-09-18T12:51:30.464Z,59.40
2018-09-18T12:53:58.677Z,59.00
2018-09-18T12:56:26.773Z,59.40
2018-09-18T12:58:54.975Z,60.00
2018-09-18T13:01:23.009Z,59.40
2018-09-18T13:03:51.219Z,59.40
2018-09-18T13:06:19.471Z,59.00
2018-09-18T13:08:47.459Z,58.80
2018-09-18T13:11:15.571Z,58.90
2018-09-18T13:13:43.704Z,58.70
2018-09-18T13:16:11.812Z,58.70
2018-09-18T13:18:39.945Z,58.40
2018-09-18T13:21:08.048Z,58.90
2018-09-18T13:23:36.162Z,59.00
2018-09-18T13:26:04.283Z,59.20
2018-09-18T13:28:32.398Z,59.40
2018-09-18T13:31:00.528Z,59.20
2018-09-18T13:33:28.619Z,58.40
2018-09-18T13:35:56.751Z,59.10
2018-09-18T13:38:24.870Z,59.70
2018-09-18T13:40:53.094Z,59.50
2018-09-18T13:43:21.144Z,60.00
2018-09-18T13:45:49.276Z,60.00
2018-09-18T13:48:17.388Z,60.00
2018-09-18T13:50:45.522Z,60.50
2018-09-18T13:53:13.631Z,60.50
2018-09-18T13:55:41.996Z,60.40
2018-09-18T13:58:10.094Z,59.80
2018-09-18T14:00:38.208Z,59.30
2018-09-18T14:03:06.331Z,59.00
2018-09-18T14:05:34.449Z,59.50
2018-09-18T14:08:02.564Z,59.80
2018-09-18T14:10:30.730Z,59.70
2018-09-18T14:12:58.866Z,60.20
2018-09-18T14:15:26.980Z,60.20
2018-09-18T14:17:55.109Z,61.10
2018-09-18T14:20:23.351Z,61.30
2018-09-18T14:22:51.439Z,61.70
2018-09-18T14:25:19.551Z,61.50
2018-09-18T14:27:47.660Z,61.10
2018-09-18T14:30:15.782Z,61.80
2018-09-18T14:32:43.895Z,61.80
2018-09-18T14:35:12.002Z,61.60
2018-09-18T14:37:40.115Z,61.70
2018-09-18T14:40:08.242Z,61.30
2018-09-18T14:42:36.369Z,61.70
2018-09-18T14:45:04.579Z,62.00
2018-09-18T14:47:32.696Z,62.10
2018-09-18T14:50:00.805Z,62.00
2018-09-18T14:52:28.918Z,62.10
2018-09-18T14:54:57.052Z,62.30
2018-09-18T14:57:25.170Z,62.40
2018-09-18T14:59:53.476Z,62.10
2018-09-18T15:02:21.620Z,61.80
2018-09-18T15:04:49.815Z,61.80
2018-09-18T15:07:17.932Z,61.80
2018-09-18T15:09:45.991Z,61.70
2018-09-18T15:12:14.128Z,62.00
2018-09-18T15:14:42.270Z,61.90
2018-09-18T15:17:10.376Z,61.60
2018-09-18T15:19:38.490Z,61.40
2018-09-18T15:22:06.651Z,61.50
2018-09-18T15:24:34.747Z,61.90
2018-09-18T15:27:02.863Z,61.40
2018-09-18T15:29:30.989Z,61.40
2018-09-18T15:31:59.106Z,61.40
2018-09-18T15:34:27.235Z,62.00
2018-09-18T15:36:55.393Z,61.60
2018-09-18T15:39:23.570Z,61.80
2018-09-18T15:41:51.828Z,61.90
2018-09-18T15:44:19.950Z,62.20
2018-09-18T15:46:48.091Z,62.10
2018-09-18T15:49:16.194Z,62.30
2018-09-18T15:51:44.409Z,62.30
2018-09-18T15:54:12.487Z,62.50
2018-09-18T15:56:40.564Z,62.60
2018-09-18T15:59:08.689Z,62.80
2018-09-18T16:01:36.802Z,63.10
2018-09-18T16:04:05.190Z,63.10
2018-09-18T16:06:33.399Z,63.40
2018-09-18T16:09:01.576Z,63.40
2018-09-18T16:11:29.715Z,63.90
2018-09-18T16:13:57.835Z,63.80
2018-09-18T16:16:26.043Z,64.10
2018-09-18T16:18:54.133Z,64.20
2018-09-18T16:21:22.259Z,64.20
2018-09-18T16:23:50.364Z,64.10
2018-09-18T16:26:18.483Z,64.60
2018-09-18T16:28:46.590Z,64.60
2018-09-18T16:31:14.856Z,64.80
2018-09-18T16:33:42.983Z,64.80
2018-09-18T16:36:11.411Z,65.20
2018-09-18T16:38:39.515Z,65.60
2018-09-18T16:41:07.632Z,65.70
2018-09-18T16:43:35.835Z,66.00
2018-09-18T16:46:03.969Z,66.10
2018-09-18T16:48:32.082Z,66.20
2018-09-18T16:51:00.183Z,66.30
2018-09-18T16:53:28.290Z,66.30
2018-09-18T16:55:56.428Z,66.30
2018-09-18T16:58:24.581Z,66.70
2018-09-18T17:00:52.694Z,66.90
2018-09-18T17:03:20.805Z,66.80
2018-09-18T17:05:48.926Z,66.80
2018-09-18T17:08:17.031Z,67.20
2018-09-18T17:10:45.170Z,67.50
2018-09-18T17:13:13.330Z,67.40
2018-09-18T17:15:41.395Z,67.50
2018-09-18T17:18:09.515Z,67.60
2018-09-18T17:20:37.625Z,68.20
2018-09-18T17:23:05.734Z,68.60
2018-09-18T17:25:34.761Z,69.30
2018-09-18T17:28:02.879Z,70.70
2018-09-18T17:30:31.074Z,70.60
2018-09-18T17:32:59.101Z,71.20
2018-09-18T17:35:27.225Z,72.50
2018-09-18T17:37:55.317Z,73.30
2018-09-18T17:40:23.444Z,73.90
2018-09-18T17:42:52.196Z,74.30
2018-09-18T17:45:20.304Z,74.70
2018-09-18T17:47:48.464Z,75.00
2018-09-18T17:50:16.637Z,75.20
2018-09-18T17:52:44.687Z,75.60
2018-09-18T17:55:13.013Z,75.80
2018-09-18T17:57:41.161Z,76.00
2018-09-18T18:00:09.307Z,76.20
2018-09-18T18:02:37.487Z,76.40
2018-09-18T18:05:05.592Z,76.70
2018-09-18T18:07:33.763Z,77.10
2018-09-18T18:10:01.979Z,77.30
2018-09-18T18:12:30.068Z,77.50
2018-09-18T18:14:58.180Z,77.90
2018-09-18T18:17:26.350Z,78.20
2018-09-18T18:19:54.466Z,78.50
2018-09-18T18:22:22.609Z,78.60
2018-09-18T18:24:50.711Z,79.10
2018-09-18T18:27:18.820Z,79.30
2018-09-18T18:29:46.939Z,79.60
2018-09-18T18:32:15.056Z,79.80
2018-09-18T18:34:43.155Z,80.10
2018-09-18T18:37:11.304Z,80.10
2018-09-18T18:39:39.420Z,80.40
2018-09-18T18:42:07.549Z,80.40
2018-09-18T18:44:35.674Z,80.00
2018-09-18T18:47:03.893Z,80.60
2018-09-18T18:49:35.514Z,80.80
2018-09-18T18:52:03.785Z,80.50
2018-09-18T18:54:31.939Z,80.70
2018-09-18T18:57:00.132Z,80.70
2018-09-18T18:59:28.224Z,80.20
2018-09-18T19:01:56.410Z,80.80
2018-09-18T19:04:24.554Z,80.60
2018-09-18T19:06:53.233Z,80.70
2018-09-18T19:09:21.462Z,80.50
2018-09-18T19:11:49.579Z,80.50
2018-09-18T19:14:17.711Z,80.70
2018-09-18T19:16:45.839Z,80.70
2018-09-18T19:19:13.962Z,80.60
2018-09-18T19:21:42.087Z,80.80
2018-09-18T19:24:10.254Z,80.80
2018-09-18T19:26:38.443Z,80.20
2018-09-18T19:29:06.633Z,80.20
2018-09-18T19:31:34.749Z,80.20
2018-09-18T19:34:02.888Z,80.10
2018-09-18T19:36:31.246Z,79.80
2018-09-18T19:38:59.382Z,79.70
2018-09-18T19:41:27.491Z,79.50
2018-09-18T19:43:55.621Z,79.10
2018-09-18T19:46:23.735Z,78.90
2018-09-18T19:48:51.945Z,78.60
2018-09-18T19:51:20.075Z,78.50
2018-09-18T19:53:48.167Z,78.20
2018-09-18T19:56:16.278Z,78.30
2018-09-18T19:58:44.416Z,78.30
2018-09-18T20:01:12.526Z,78.30
2018-09-18T20:03:40.664Z,78.20
2018-09-18T20:06:08.835Z,78.30
2018-09-18T20:08:36.955Z,78.40
2018-09-18T20:11:05.183Z,78.60
2018-09-18T20:13:33.395Z,78.60
2018-09-18T20:16:01.610Z,78.70
2018-09-18T20:18:29.711Z,79.10
2018-09-18T20:20:57.922Z,79.10
2018-09-18T20:23:25.982Z,79.20
2018-09-18T20:25:54.096Z,79.30
2018-09-18T20:28:22.214Z,79.50
2018-09-18T20:30:50.339Z,79.80
2018-09-18T20:33:18.456Z,79.60
2018-09-18T20:35:46.616Z,79.70
2018-09-18T20:38:14.682Z,79.60
2018-09-18T20:40:42.823Z,79.80
2018-09-18T20:43:10.947Z,79.80
2018-09-18T20:45:39.054Z,80.10
2018-09-18T20:48:07.156Z,80.20
2018-09-18T20:50:41.900Z,80.30
2018-09-18T20:53:09.931Z,81.10
2018-09-18T20:55:38.080Z,80.50
2018-09-18T20:58:06.183Z,80.50
2018-09-18T21:00:34.304Z,80.50
2018-09-18T21:03:02.433Z,80.30
2018-09-18T21:05:30.567Z,80.70
2018-09-18T21:07:58.670Z,80.70
2018-09-18T21:10:26.806Z,80.80
2018-09-18T21:12:54.956Z,81.50
2018-09-18T21:15:23.168Z,81.00
2018-09-18T21:17:51.286Z,81.10
2018-09-18T21:20:19.413Z,81.50
2018-09-18T21:22:47.540Z,81.60
2018-09-18T21:25:17.627Z,82.00
2018-09-18T21:27:46.928Z,82.00
2018-09-18T21:30:16.079Z,81.80
2018-09-18T21:32:44.348Z,82.40
2018-09-18T21:35:12.460Z,82.70
2018-09-18T21:37:40.964Z,82.90
2018-09-18T21:40:09.115Z,83.10
2018-09-18T21:42:37.600Z,83.00
2018-09-18T21:45:05.745Z,83.70
2018-09-18T21:47:33.880Z,83.90
2018-09-18T21:50:08.305Z,84.10
2018-09-18T21:52:36.460Z,84.30
2018-09-18T21:55:04.646Z,84.40
2018-09-18T21:57:32.784Z,84.40
2018-09-18T22:00:00.903Z,85.30
2018-09-18T22:02:29.090Z,84.60
2018-09-18T22:04:57.241Z,84.60
2018-09-18T22:07:25.359Z,84.80
2018-09-18T22:09:53.494Z,84.70
2018-09-18T22:12:21.715Z,87.30
2018-09-18T22:14:49.773Z,87.30
2018-09-18T22:17:17.908Z,87.40
2018-09-18T22:19:46.467Z,87.40
2018-09-18T22:22:14.698Z,87.40
2018-09-18T22:24:42.723Z,87.50
2018-09-18T22:27:10.864Z,87.20
2018-09-18T22:29:38.966Z,87.20
2018-09-18T22:32:07.295Z,86.90
2018-09-18T22:34:35.415Z,86.80
2018-09-18T22:37:03.544Z,86.50
2018-09-18T22:39:31.766Z,86.90
2018-09-18T22:41:59.906Z,87.10
2018-09-18T22:44:28.134Z,86.50
2018-09-18T22:46:56.297Z,86.30
2018-09-18T22:49:24.423Z,86.10
2018-09-18T22:51:52.548Z,85.90
2018-09-18T22:54:20.658Z,85.50
2018-09-18T22:56:48.790Z,85.50
2018-09-18T22:59:16.919Z,85.50
2018-09-18T23:01:45.172Z,85.10
2018-09-18T23:04:13.279Z,85.20
2018-09-18T23:06:41.417Z,85.10
2018-09-18T23:09:10.102Z,85.10
2018-09-18T23:11:38.239Z,85.20
2018-09-18T23:14:06.359Z,85.20
2018-09-18T23:16:34.500Z,85.30
2018-09-18T23:19:02.920Z,85.60
2018-09-18T23:21:31.035Z,85.50
2018-09-18T23:23:59.195Z,85.60
2018-09-18T23:26:27.325Z,85.70
2018-09-18T23:28:55.477Z,85.90
2018-09-18T23:31:23.600Z,86.30
2018-09-18T23:33:51.723Z,86.40
2018-09-18T23:36:19.899Z,86.70
2018-09-18T23:38:48.003Z,86.80
2018-09-18T23:41:16.177Z,87.10
2018-09-18T23:43:44.308Z,88.00
2018-09-18T23:46:12.504Z,87.50
2018-09-18T23:48:40.636Z,87.90
2018-09-18T23:51:08.798Z,88.30
2018-09-18T23:53:37.050Z,88.70
2018-09-18T23:56:05.155Z,89.00
2018-09-18T23:58:33.506Z,89.60
